Ituna, Canada
Current Conditions -  °F | °C
As of 6:00 PM on Monday 24 Nov 2014 (Local Time) from CYQV Reporting Station
Overcast Overcast  
Wind Chill: -13°   Ceiling: 1400
Heat Index: -7°   Visibility: 9mi
Dew Point: -9°   Wind: 8mph
Humidity: 86%   Direction: 280°W
Pressure: 29.89"   Gusts: NA
Location:  51.17°N, 103.5°W
Report Text: CYQV 250000Z AUTO 28007KT 9SM OVC014 M07/M09 A2989 RMK SLP168
Loading
Personal Weather Stations






























Interactive Weather Map New forecast layout! Learn more

10-Day Weather Forecast

Advertisements
Track Severe Weather on mobile